Time;durP1;ratioP1;P1;durP2;ratioP2;P2;SDS_P1;SDS_P2;PMS_P1;PMS_P2;Temp;Humidity;BMP_temperature;BMP_pressure;BME280_temperature;BME280_humidity;BME280_pressure;Samples;Min_cycle;Max_cycle;Signal;HPM_P1;HPM_P2
2022/01/13 00:01:42;;;;;;;69.53;35.45;;;;;;;2.40;93.38;103546.13;4979056;28;20086;-82
2022/01/13 00:04:11;;;;;;;70.68;35.88;;;;;;;2.33;93.27;103548.88;4979075;28;20051;-82
2022/01/13 00:06:38;;;;;;;62.40;35.03;;;;;;;2.40;93.31;103543.53;4978276;28;20070;-80
2022/01/13 00:09:05;;;;;;;64.90;35.58;;;;;;;2.37;93.77;103541.03;4978884;28;20178;-82
2022/01/13 00:11:31;;;;;;;72.25;37.15;;;;;;;2.37;93.49;103543.59;4979199;28;20137;-81
2022/01/13 00:14:25;;;;;;;64.47;35.13;;;;;;;2.39;93.41;103537.53;4979285;28;20469;-80
2022/01/13 00:17:11;;;;;;;71.13;36.92;;;;;;;2.45;93.21;103542.56;4977956;28;20094;-80
2022/01/13 00:19:49;;;;;;;65.65;35.05;;;;;;;2.36;93.68;103541.94;4978038;28;20051;-80
2022/01/13 00:22:23;;;;;;;68.20;36.30;;;;;;;2.41;93.07;103558.16;4978357;28;20054;-80
2022/01/13 00:24:53;;;;;;;74.63;38.67;;;;;;;2.29;93.49;103554.13;4978367;28;20054;-80
2022/01/13 00:27:22;;;;;;;70.93;35.97;;;;;;;2.39;93.78;103558.19;4978459;28;20053;-80
2022/01/13 00:29:51;;;;;;;68.53;37.00;;;;;;;2.46;93.28;103556.34;4978435;28;20430;-81
2022/01/13 00:32:20;;;;;;;70.43;38.25;;;;;;;2.42;93.28;103552.13;4978150;28;20082;-80
2022/01/13 00:34:47;;;;;;;66.18;35.58;;;;;;;2.38;93.18;103551.31;4975660;28;20053;-80
2022/01/13 00:37:13;;;;;;;71.93;35.85;;;;;;;2.36;93.30;103560.88;4978742;28;20129;-81
2022/01/13 00:39:40;;;;;;;71.30;36.20;;;;;;;2.39;93.20;103562.50;4980431;28;20093;-81
2022/01/13 00:42:08;;;;;;;75.70;40.38;;;;;;;2.36;92.90;103568.63;4981473;28;20106;-80
2022/01/13 00:44:37;;;;;;;73.65;38.42;;;;;;;2.50;92.60;103565.72;4979580;28;20057;-81
2022/01/13 00:47:09;;;;;;;70.82;36.83;;;;;;;2.37;92.47;103574.63;4981997;28;20046;-79
2022/01/13 00:49:36;;;;;;;72.88;38.45;;;;;;;2.28;93.05;103563.63;4979001;28;20061;-80
2022/01/13 00:52:04;;;;;;;67.85;36.35;;;;;;;2.34;93.41;103565.22;4979210;28;20482;-82
2022/01/13 00:54:32;;;;;;;69.50;36.58;;;;;;;2.39;93.77;103572.84;4979380;28;20458;-81
2022/01/13 00:56:59;;;;;;;62.55;35.20;;;;;;;2.38;93.19;103565.97;4978329;28;20050;-80
2022/01/13 00:59:25;;;;;;;71.55;36.30;;;;;;;2.35;92.94;103576.41;4977957;28;20133;-81
2022/01/13 01:01:54;;;;;;;73.25;35.60;;;;;;;2.32;92.42;103567.00;4977414;28;20115;-81
2022/01/13 01:04:23;;;;;;;72.60;37.25;;;;;;;2.35;93.14;103566.06;4976843;28;20526;-80
2022/01/13 01:06:50;;;;;;;68.30;35.83;;;;;;;2.25;92.68;103566.25;4973401;28;20057;-81
2022/01/13 01:09:22;;;;;;;70.93;36.92;;;;;;;2.27;92.74;103572.25;4975542;28;20519;-81
2022/01/13 01:11:51;;;;;;;72.57;36.75;;;;;;;2.32;92.46;103578.19;4977328;28;20061;-82
2022/01/13 01:14:18;;;;;;;68.03;37.17;;;;;;;2.33;92.58;103574.72;4977169;28;20046;-80
2022/01/13 01:16:46;;;;;;;67.93;35.90;;;;;;;2.26;93.29;103565.38;4976764;28;20050;-81
2022/01/13 01:22:35;;;;;;;72.30;37.35;;;;;;;2.13;93.30;103557.88;4972845;28;20392;-82
2022/01/13 01:25:21;;;;;;;68.18;34.25;;;;;;;2.27;93.07;103579.16;4977947;28;20043;-82
2022/01/13 01:27:51;;;;;;;69.97;35.72;;;;;;;2.19;93.31;103570.69;4978545;28;20053;-82
2022/01/13 01:30:27;;;;;;;67.57;35.08;;;;;;;2.20;92.91;103568.06;4978238;28;20047;-81
2022/01/13 01:32:54;;;;;;;68.53;36.13;;;;;;;2.23;93.50;103574.91;4977190;28;20059;-81
2022/01/13 01:35:25;;;;;;;74.35;36.65;;;;;;;2.25;93.45;103576.59;4978557;28;20134;-81
2022/01/13 01:37:54;;;;;;;72.82;37.00;;;;;;;2.22;93.27;103573.22;4979024;28;20043;-80
2022/01/13 01:40:21;;;;;;;71.60;36.65;;;;;;;2.36;92.93;103591.88;4977842;28;20061;-81
2022/01/13 01:42:48;;;;;;;69.88;37.80;;;;;;;2.33;92.09;103597.97;4978804;28;20101;-81
2022/01/13 01:45:17;;;;;;;68.75;36.50;;;;;;;2.24;92.27;103598.13;4978014;28;20138;-82
2022/01/13 01:47:44;;;;;;;70.82;38.38;;;;;;;2.18;92.07;103594.81;4978737;28;20055;-82
2022/01/13 01:50:18;;;;;;;66.82;35.95;;;;;;;2.16;92.29;103586.25;4978941;28;20051;-82
2022/01/13 01:52:45;;;;;;;63.38;35.92;;;;;;;2.21;92.43;103598.19;4978107;28;20118;-81
2022/01/13 01:55:14;;;;;;;68.25;36.95;;;;;;;2.26;92.50;103603.28;4979193;28;20058;-81
2022/01/13 01:57:41;;;;;;;67.40;37.92;;;;;;;2.18;92.42;103608.59;4982573;28;20054;-81
2022/01/13 02:00:11;;;;;;;65.32;36.60;;;;;;;2.13;92.13;103607.81;4982396;28;20134;-81
2022/01/13 02:02:38;;;;;;;64.63;34.88;;;;;;;2.11;92.62;103603.56;4983522;28;20050;-82
2022/01/13 02:05:06;;;;;;;67.53;35.53;;;;;;;2.14;92.99;103594.03;4983739;28;20082;-81
2022/01/13 02:07:32;;;;;;;73.47;36.80;;;;;;;2.13;93.16;103586.31;4982766;28;20093;-81
2022/01/13 02:10:01;;;;;;;69.88;37.42;;;;;;;2.14;92.87;103588.00;4981573;28;20050;-81
2022/01/13 02:12:34;;;;;;;70.68;35.85;;;;;;;2.13;92.71;103592.31;4981582;28;20047;-82
2022/01/13 02:17:59;;;;;;;65.32;34.42;;;;;;;2.15;92.84;103587.97;4934608;28;20198;-82
2022/01/13 02:20:41;;;;;;;64.15;35.17;;;;;;;2.12;92.77;103593.19;4981843;28;20543;-83
2022/01/13 02:23:16;;;;;;;66.78;36.95;;;;;;;2.18;92.14;103585.34;4981852;28;20051;-81
2022/01/13 02:26:05;;;;;;;61.63;35.30;;;;;;;2.15;92.45;103581.97;4981991;28;20059;-82
2022/01/13 02:28:35;;;;;;;71.20;36.30;;;;;;;2.13;92.93;103588.88;4980069;28;20051;-82
2022/01/13 02:31:08;;;;;;;67.95;34.97;;;;;;;2.16;92.48;103581.94;4982094;28;20047;-82
2022/01/13 02:33:35;;;;;;;71.90;34.95;;;;;;;2.09;92.90;103574.31;4982482;28;20169;-81
2022/01/13 02:36:07;;;;;;;62.60;34.53;;;;;;;2.04;93.15;103565.81;4980997;28;20054;-81
2022/01/13 02:38:37;;;;;;;66.70;35.90;;;;;;;2.13;93.25;103571.66;4980727;28;20122;-81
2022/01/13 02:41:04;;;;;;;70.72;37.40;;;;;;;1.93;93.07;103555.69;4981176;28;20057;-82
2022/01/13 02:43:43;;;;;;;70.38;36.25;;;;;;;2.00;92.94;103559.84;4982946;28;20118;-83
2022/01/13 02:46:33;;;;;;;64.65;35.88;;;;;;;1.83;92.50;103529.22;4986249;28;20047;-82
2022/01/13 02:49:15;;;;;;;66.47;35.63;;;;;;;1.90;92.86;103556.59;4984717;28;20057;-82
2022/01/13 02:51:46;;;;;;;63.10;34.28;;;;;;;1.95;92.88;103577.16;4984875;28;20527;-83
2022/01/13 02:54:13;;;;;;;68.90;36.03;;;;;;;2.05;92.53;103562.34;4983914;28;20047;-83
2022/01/13 02:56:40;;;;;;;65.25;34.45;;;;;;;2.13;92.21;103574.25;4982768;28;20082;-83
2022/01/13 02:59:13;;;;;;;65.00;32.88;;;;;;;1.93;93.06;103566.84;4980519;28;20456;-84
2022/01/13 03:01:53;;;;;;;66.25;34.50;;;;;;;1.96;92.48;103560.78;4980836;28;20058;-83
2022/01/13 03:04:26;;;;;;;65.00;34.67;;;;;;;1.81;92.89;103537.84;4980917;28;20042;-84
2022/01/13 03:07:03;;;;;;;66.90;35.08;;;;;;;1.89;93.13;103559.22;4979208;28;20081;-84
2022/01/13 03:09:35;;;;;;;68.60;34.83;;;;;;;2.00;92.75;103562.44;4979014;28;20157;-84
2022/01/13 03:12:15;;;;;;;68.47;34.95;;;;;;;1.94;92.91;103550.47;4979472;28;20057;-84
2022/01/13 03:14:45;;;;;;;68.43;35.28;;;;;;;1.99;92.93;103559.00;4979568;28;20081;-84
2022/01/13 03:17:21;;;;;;;65.25;34.90;;;;;;;2.04;92.70;103553.75;4981870;28;20101;-83
2022/01/13 03:19:53;;;;;;;65.32;33.92;;;;;;;2.00;92.64;103557.28;4981708;28;20058;-83
2022/01/13 03:22:21;;;;;;;66.68;36.20;;;;;;;2.03;92.56;103561.53;4979631;28;20439;-84
2022/01/13 03:24:59;;;;;;;70.85;35.55;;;;;;;1.90;92.94;103533.34;4978473;28;20078;-83
2022/01/13 03:27:34;;;;;;;66.70;34.38;;;;;;;2.06;92.79;103549.41;4979190;28;20121;-83
2022/01/13 03:33:25;;;;;;;66.05;34.70;;;;;;;1.90;92.68;103537.66;4978294;28;20121;-84
2022/01/13 03:35:54;;;;;;;69.95;34.30;;;;;;;1.92;92.76;103553.97;4978104;28;20054;-84
2022/01/13 03:38:31;;;;;;;68.93;34.70;;;;;;;1.86;92.86;103541.22;4977762;28;20141;-85
2022/01/13 03:40:58;;;;;;;67.03;34.20;;;;;;;1.62;93.23;103527.88;4978437;28;20165;-84
2022/01/13 03:43:32;;;;;;;67.45;34.33;;;;;;;1.63;92.90;103534.72;4978059;28;20434;-84
2022/01/13 03:46:01;;;;;;;66.18;34.20;;;;;;;1.64;93.23;103535.56;4977449;28;20047;-83
2022/01/13 03:48:38;;;;;;;66.15;34.67;;;;;;;1.71;93.42;103556.97;4977114;28;20510;-84
2022/01/13 03:51:09;;;;;;;67.32;33.47;;;;;;;1.74;93.81;103555.19;4976928;28;20109;-83
2022/01/13 03:54:40;;;;;;;70.15;34.15;;;;;;;1.58;92.91;103531.38;4975401;28;20194;-83
2022/01/13 03:57:43;;;;;;;67.40;33.90;;;;;;;1.85;93.75;103562.75;4975944;28;20050;-82
2022/01/13 04:00:47;;;;;;;67.07;35.08;;;;;;;1.81;93.57;103564.53;4976357;28;20054;-81
2022/01/13 04:03:14;;;;;;;67.65;34.22;;;;;;;1.80;93.79;103559.41;4976461;28;20489;-81
2022/01/13 04:06:04;;;;;;;73.00;35.33;;;;;;;1.86;93.58;103551.53;4976072;28;20146;-82
2022/01/13 04:08:32;;;;;;;70.15;34.92;;;;;;;1.79;93.87;103557.69;4975302;28;20043;-83
2022/01/13 04:11:17;;;;;;;75.88;36.30;;;;;;;1.89;93.57;103561.81;4976415;28;20555;-83
2022/01/13 04:13:51;;;;;;;71.00;35.58;;;;;;;1.81;93.62;103549.03;4981026;28;20201;-83
2022/01/13 04:16:20;;;;;;;78.05;36.60;;;;;;;1.82;93.58;103553.31;4979460;28;20070;-83
2022/01/13 04:18:50;;;;;;;73.57;36.80;;;;;;;1.87;93.68;103555.81;4977290;28;20130;-82
2022/01/13 04:21:18;;;;;;;71.97;36.55;;;;;;;1.87;93.88;103553.25;4978466;28;20046;-83
2022/01/13 04:23:46;;;;;;;71.82;35.55;;;;;;;1.87;93.75;103563.56;4978709;28;20114;-82
2022/01/13 04:26:18;;;;;;;69.50;35.03;;;;;;;1.82;93.30;103565.38;4978861;28;20046;-82
2022/01/13 04:28:46;;;;;;;69.40;37.63;;;;;;;1.97;93.33;103565.94;4979000;28;20145;-83
2022/01/13 04:31:13;;;;;;;67.70;33.83;;;;;;;1.90;92.74;103553.16;4980240;28;20057;-83
2022/01/13 04:33:40;;;;;;;66.30;33.75;;;;;;;1.85;92.40;103555.00;4978796;28;20073;-82
2022/01/13 04:36:09;;;;;;;72.40;35.80;;;;;;;1.77;93.09;103544.81;4979573;28;20074;-82
2022/01/13 04:38:36;;;;;;;68.65;35.42;;;;;;;1.82;93.05;103562.78;4979237;28;20051;-81
2022/01/13 04:41:04;;;;;;;72.72;36.33;;;;;;;1.78;93.40;103553.41;4978690;28;20050;-82
2022/01/13 04:43:33;;;;;;;67.32;33.70;;;;;;;1.85;93.27;103555.84;4977576;28;20054;-82
2022/01/13 04:46:01;;;;;;;69.47;34.35;;;;;;;1.89;92.77;103551.47;4978093;28;20126;-82
2022/01/13 04:48:27;;;;;;;68.05;33.05;;;;;;;1.77;93.08;103549.97;4978510;28;20047;-81
2022/01/13 04:50:54;;;;;;;64.25;33.00;;;;;;;1.73;93.09;103539.72;4975234;28;20170;-82
2022/01/13 04:53:21;;;;;;;66.95;34.22;;;;;;;1.74;93.49;103538.84;4975217;28;20484;-82
2022/01/13 04:55:52;;;;;;;66.00;35.22;;;;;;;1.74;93.64;103523.34;4976164;28;20110;-83
2022/01/13 04:58:21;;;;;;;70.22;35.05;;;;;;;1.79;93.92;103529.28;4976788;28;20050;-82
2022/01/13 05:00:49;;;;;;;65.95;33.88;;;;;;;1.78;93.62;103536.19;4977491;28;20047;-82
2022/01/13 05:03:16;;;;;;;79.65;36.10;;;;;;;1.77;93.42;103541.38;4976663;28;20047;-82
2022/01/13 05:05:43;;;;;;;84.68;36.75;;;;;;;1.67;93.86;103538.09;4976437;28;20110;-82
2022/01/13 05:08:09;;;;;;;90.15;39.03;;;;;;;1.51;94.53;103527.19;4976332;28;20196;-83
2022/01/13 05:10:39;;;;;;;91.63;37.53;;;;;;;1.60;94.15;103534.78;4976411;28;20053;-83
2022/01/13 05:13:09;;;;;;;96.13;39.60;;;;;;;1.52;94.75;103536.63;4976451;28;20070;-82
2022/01/13 05:15:38;;;;;;;88.90;38.85;;;;;;;1.45;95.37;103537.63;4976602;28;20505;-80
2022/01/13 05:18:17;;;;;;;86.13;37.70;;;;;;;1.59;95.06;103529.66;4976773;28;20058;-80
2022/01/13 05:20:50;;;;;;;92.88;39.03;;;;;;;1.46;95.20;103523.84;4977278;28;20125;-81
2022/01/13 05:23:18;;;;;;;87.55;37.17;;;;;;;1.50;95.03;103525.50;4976468;28;20474;-80
2022/01/13 05:25:45;;;;;;;88.82;37.80;;;;;;;1.50;95.47;103528.06;4976955;28;20082;-81
2022/01/13 05:28:12;;;;;;;89.32;38.38;;;;;;;1.49;94.48;103526.38;4973877;28;20129;-80
2022/01/13 05:30:39;;;;;;;84.60;36.28;;;;;;;1.51;95.01;103528.94;4977678;28;20142;-80
2022/01/13 05:33:07;;;;;;;83.57;38.22;;;;;;;1.50;94.45;103535.81;4980688;28;20057;-81
2022/01/13 05:35:34;;;;;;;84.25;37.83;;;;;;;1.51;94.21;103528.94;4981067;28;20498;-80
2022/01/13 05:38:01;;;;;;;79.97;37.22;;;;;;;1.42;94.84;103526.53;4982334;28;20062;-80
2022/01/13 05:40:28;;;;;;;89.65;37.38;;;;;;;1.44;94.83;103515.28;4981922;28;20082;-80
2022/01/13 05:42:54;;;;;;;84.32;37.17;;;;;;;1.44;95.17;103511.84;4980505;28;20065;-81
2022/01/13 05:45:28;;;;;;;87.20;38.38;;;;;;;1.54;94.76;103523.72;4980208;28;20434;-80
2022/01/13 05:47:55;;;;;;;81.40;35.72;;;;;;;1.46;94.63;103516.09;4978326;28;20047;-81
2022/01/13 05:50:23;;;;;;;76.22;36.75;;;;;;;1.54;94.59;103518.56;4978605;28;20542;-80
2022/01/13 05:52:50;;;;;;;75.63;37.08;;;;;;;1.41;94.43;103511.94;4979612;28;20453;-80
2022/01/13 05:55:18;;;;;;;80.43;36.97;;;;;;;1.36;94.47;103514.59;4978567;28;20471;-80
2022/01/13 05:57:45;;;;;;;79.95;36.75;;;;;;;1.37;94.68;103518.00;4979675;28;20463;-82
2022/01/13 06:00:15;;;;;;;77.65;37.20;;;;;;;1.33;94.48;103507.75;4980914;28;20475;-81
2022/01/13 06:02:42;;;;;;;84.40;37.35;;;;;;;1.25;94.57;103521.66;4980219;28;20114;-80
2022/01/13 06:05:10;;;;;;;84.88;35.53;;;;;;;1.25;94.37;103531.97;4979734;28;20138;-80
2022/01/13 06:07:38;;;;;;;83.82;36.63;;;;;;;1.13;94.55;103525.28;4976103;28;20097;-80
2022/01/13 06:10:08;;;;;;;84.43;36.53;;;;;;;1.14;95.07;103537.28;4976438;28;20551;-81
2022/01/13 06:12:37;;;;;;;89.10;39.40;;;;;;;1.08;94.99;103526.22;4976649;28;20105;-79
2022/01/13 06:15:06;;;;;;;92.90;40.10;;;;;;;1.18;95.25;103525.19;4979391;28;20142;-79
2022/01/13 06:17:32;;;;;;;86.05;38.33;;;;;;;1.26;95.20;103525.94;4977745;28;20090;-80
2022/01/13 06:19:59;;;;;;;91.53;39.67;;;;;;;1.27;95.12;103522.47;4978153;28;20515;-80
2022/01/13 06:22:26;;;;;;;94.22;39.80;;;;;;;1.18;95.09;103514.88;4978721;28;20058;-80
2022/01/13 06:24:55;;;;;;;92.13;41.45;;;;;;;1.19;94.92;103521.75;4978132;28;20101;-81
2022/01/13 06:27:22;;;;;;;98.03;42.85;;;;;;;1.18;94.95;103514.88;4976313;28;20058;-80
2022/01/13 06:29:50;;;;;;;87.45;41.03;;;;;;;1.18;95.04;103510.56;4958805;28;20047;-81
2022/01/13 06:35:35;;;;;;;90.45;38.65;;;;;;;1.09;94.89;103500.41;4958316;28;20063;-79
2022/01/13 06:38:32;;;;;;;93.53;43.13;;;;;;;1.00;94.65;103485.94;4970829;28;20068;-80
2022/01/13 06:53:21;;;;;;;94.85;41.83;;;;;;;1.06;95.08;103509.91;4978629;28;20073;-80
2022/01/13 06:55:49;;;;;;;104.97;45.88;;;;;;;1.02;95.30;103506.53;4979598;28;20055;-80
2022/01/13 06:58:17;;;;;;;102.40;46.60;;;;;;;1.11;95.20;103521.88;4979982;28;20106;-80
2022/01/13 07:00:57;;;;;;;113.18;52.65;;;;;;;0.90;95.60;103515.34;4980325;28;20491;-79
2022/01/13 07:03:28;;;;;;;107.93;48.88;;;;;;;0.69;95.42;103489.88;4978880;28;20129;-80
2022/01/13 07:06:01;;;;;;;111.75;48.80;;;;;;;0.95;95.69;103525.53;4981289;28;20051;-80
2022/01/13 07:08:28;;;;;;;114.72;47.63;;;;;;;0.99;95.62;103524.63;4977580;28;20074;-80
2022/01/13 07:10:54;;;;;;;114.20;47.85;;;;;;;0.91;95.94;103516.19;4979020;28;20416;-80
2022/01/13 07:13:25;;;;;;;113.47;48.25;;;;;;;1.04;95.73;103528.00;4977544;28;20141;-81
2022/01/13 07:16:05;;;;;;;;;;;;;;;;;;;;;
2022/01/13 07:18:38;;;;;;;117.93;48.63;;;;;;;0.98;95.84;103528.94;5041605;23;20049;-78
2022/01/13 07:21:05;;;;;;;112.65;48.97;;;;;;;0.98;95.84;103533.25;5036593;28;20049;-78
2022/01/13 07:23:32;;;;;;;117.82;48.55;;;;;;;1.05;96.14;103544.31;5011640;28;20055;-78
2022/01/13 07:25:59;;;;;;;121.07;48.28;;;;;;;0.99;95.96;103545.25;5014411;28;20109;-79
2022/01/13 07:28:29;;;;;;;107.38;47.50;;;;;;;0.94;95.96;103541.91;5017206;28;20180;-80
2022/01/13 07:30:56;;;;;;;119.07;46.88;;;;;;;0.96;96.02;103542.72;5018438;28;20053;-79
2022/01/13 07:33:24;;;;;;;110.15;46.15;;;;;;;0.92;96.12;103546.25;5019429;28;20073;-80
2022/01/13 07:35:51;;;;;;;126.57;50.80;;;;;;;1.02;96.09;103545.22;5005433;28;20081;-79
2022/01/13 07:38:18;;;;;;;109.57;46.50;;;;;;;0.97;96.09;103536.69;5001851;28;20130;-79
2022/01/13 07:40:45;;;;;;;120.00;48.50;;;;;;;1.03;96.29;103546.06;5023640;28;20141;-81
2022/01/13 07:43:11;;;;;;;118.55;47.97;;;;;;;1.05;96.27;103552.06;5022925;28;20479;-81
2022/01/13 07:46:01;;;;;;;122.00;49.33;;;;;;;1.06;95.74;103546.03;5015726;28;20042;-81
2022/01/13 07:48:35;;;;;;;117.72;45.30;;;;;;;0.92;96.23;103539.38;5002163;28;20052;-81
2022/01/13 07:51:02;;;;;;;129.68;50.75;;;;;;;0.94;96.14;103558.25;4991579;28;20046;-80
2022/01/13 07:53:32;;;;;;;113.50;47.75;;;;;;;1.05;96.17;103567.53;4987152;28;20050;-81
2022/01/13 07:55:59;;;;;;;113.10;48.17;;;;;;;0.92;96.08;103535.94;4987158;28;20046;-80
2022/01/13 07:58:25;;;;;;;125.60;51.17;;;;;;;1.14;95.98;103564.81;4985721;28;20526;-80
2022/01/13 08:00:53;;;;;;;113.57;46.25;;;;;;;1.06;95.92;103561.50;4986119;28;20050;-78
2022/01/13 08:03:20;;;;;;;115.30;46.53;;;;;;;0.99;95.96;103569.31;4993227;28;20137;-80
2022/01/13 08:05:46;;;;;;;114.35;44.97;;;;;;;0.96;96.49;103564.19;4987623;28;20529;-80
2022/01/13 08:08:13;;;;;;;111.80;45.38;;;;;;;0.92;96.49;103574.59;4988088;28;20133;-79
2022/01/13 08:10:40;;;;;;;122.10;47.58;;;;;;;0.93;96.64;103574.59;4988881;28;20062;-78
2022/01/13 08:13:06;;;;;;;123.38;45.00;;;;;;;1.01;96.56;103579.59;4993646;28;20097;-79
2022/01/13 08:15:35;;;;;;;126.38;46.03;;;;;;;0.98;96.70;103579.66;4994153;28;20498;-82
2022/01/13 08:20:47;;;;;;;124.47;44.80;;;;;;;0.93;96.84;103581.47;4995699;28;20110;-80
2022/01/13 08:23:14;;;;;;;126.03;45.45;;;;;;;0.84;97.10;103574.72;4995583;28;20054;-79
2022/01/13 08:25:41;;;;;;;129.60;44.50;;;;;;;0.87;97.18;103576.41;4994637;28;20093;-79
2022/01/13 08:28:08;;;;;;;133.85;47.90;;;;;;;1.01;97.38;103579.59;4996769;28;20133;-80
2022/01/13 08:30:35;;;;;;;140.77;47.72;;;;;;;1.06;97.37;103574.38;4997538;28;20042;-80
2022/01/13 08:33:03;;;;;;;132.73;47.58;;;;;;;1.09;96.95;103576.91;4998588;28;20133;-82
2022/01/13 08:35:31;;;;;;;127.68;46.95;;;;;;;1.26;96.47;103574.94;4998843;28;20062;-82
2022/01/13 08:38:05;;;;;;;143.40;60.38;;;;;;;1.31;96.33;103583.47;4999515;28;20101;-82
2022/01/13 08:40:34;;;;;;;122.20;44.72;;;;;;;1.21;95.52;103575.00;4999525;28;20047;-82
2022/01/13 08:43:02;;;;;;;127.07;53.60;;;;;;;1.22;96.00;103568.13;4998205;28;20431;-81
2022/01/13 08:45:29;;;;;;;119.28;49.03;;;;;;;1.33;95.99;103579.13;4998020;28;20447;-83
2022/01/13 08:47:55;;;;;;;129.88;49.60;;;;;;;1.26;96.06;103585.25;4998022;28;20054;-83
2022/01/13 08:50:23;;;;;;;120.53;46.38;;;;;;;1.15;96.27;103579.41;5000037;28;20078;-82
2022/01/13 08:52:50;;;;;;;118.40;47.70;;;;;;;1.21;96.64;103587.06;4998529;28;20054;-83
2022/01/13 08:55:17;;;;;;;117.63;47.42;;;;;;;1.27;96.28;103581.81;4999018;28;20057;-83
2022/01/13 08:57:43;;;;;;;110.20;42.85;;;;;;;1.23;96.07;103581.00;4998946;28;20130;-81
2022/01/13 09:00:19;;;;;;;105.13;42.92;;;;;;;1.03;96.33;103593.34;4999491;28;20110;-81
2022/01/13 09:02:46;;;;;;;110.93;43.83;;;;;;;0.70;97.61;103579.19;4999601;28;20047;-81
2022/01/13 09:05:18;;;;;;;112.55;43.15;;;;;;;0.75;97.83;103590.31;5001951;28;20121;-82
2022/01/13 09:07:46;;;;;;;128.27;49.10;;;;;;;1.03;97.88;103587.31;5003817;28;20481;-79
2022/01/13 09:10:15;;;;;;;120.68;46.13;;;;;;;1.01;97.33;103566.72;5004647;28;20074;-81
2022/01/13 09:12:42;;;;;;;131.82;46.17;;;;;;;1.03;96.61;103579.59;5005181;28;20050;-82
2022/01/13 09:15:18;;;;;;;127.13;46.83;;;;;;;0.63;98.12;103581.00;5004982;28;20054;-80
2022/01/13 09:17:46;;;;;;;138.63;45.63;;;;;;;0.55;98.47;103589.69;5005552;28;20086;-80
2022/01/13 09:20:15;;;;;;;132.93;46.42;;;;;;;0.54;98.54;103594.00;5004710;28;20050;-79
2022/01/13 09:22:43;;;;;;;128.70;45.67;;;;;;;0.64;98.46;103584.44;5005946;28;20266;-80
2022/01/13 09:25:12;;;;;;;128.85;44.47;;;;;;;0.86;97.94;103591.00;5009074;28;20050;-83
2022/01/13 09:27:40;;;;;;;129.88;45.58;;;;;;;0.74;97.96;103596.34;5007416;28;20522;-82
2022/01/13 09:30:09;;;;;;;134.18;47.60;;;;;;;0.90;97.61;103600.41;5008399;28;20115;-82
2022/01/13 09:32:36;;;;;;;124.85;48.40;;;;;;;1.10;97.41;103605.25;5008807;28;20054;-82
2022/01/13 09:35:04;;;;;;;114.95;45.30;;;;;;;1.15;96.79;103600.91;5006867;28;20087;-81
2022/01/13 09:37:30;;;;;;;100.63;43.00;;;;;;;1.19;95.99;103610.28;5006102;28;20053;-81
2022/01/13 09:39:59;;;;;;;108.53;41.67;;;;;;;1.16;95.36;103609.47;5004635;28;20085;-82
2022/01/13 09:42:30;;;;;;;110.13;45.70;;;;;;;0.78;96.78;103597.13;5006354;28;20077;-82
2022/01/13 09:44:57;;;;;;;104.18;43.53;;;;;;;1.02;96.72;103603.66;5008532;28;20047;-82
2022/01/13 09:47:24;;;;;;;111.68;42.50;;;;;;;1.17;96.69;103616.34;5010146;28;20056;-80
2022/01/13 09:49:52;;;;;;;112.10;44.53;;;;;;;1.24;96.41;103618.81;5010979;28;20077;-81
2022/01/13 09:52:20;;;;;;;112.63;44.00;;;;;;;1.39;95.70;103612.56;5011852;28;20050;-81
2022/01/13 09:54:47;;;;;;;105.43;41.90;;;;;;;1.52;95.60;103603.75;5008623;28;20074;-80
2022/01/13 09:57:14;;;;;;;98.43;41.83;;;;;;;1.72;94.71;103598.25;5006258;28;20436;-81
2022/01/13 09:59:42;;;;;;;94.68;41.58;;;;;;;1.21;94.79;103610.28;5005262;28;20047;-81
2022/01/13 10:02:09;;;;;;;98.78;40.63;;;;;;;1.24;94.97;103608.50;5003379;28;20057;-81
2022/01/13 10:04:49;;;;;;;99.20;42.50;;;;;;;1.21;95.28;103612.84;5004710;28;20089;-81
2022/01/13 10:07:29;;;;;;;88.63;40.10;;;;;;;1.26;94.98;103598.16;5004640;28;20090;-79
2022/01/13 10:10:00;;;;;;;90.13;38.15;;;;;;;1.78;94.39;103603.31;5005766;28;20471;-79
2022/01/13 10:12:36;;;;;;;81.13;38.33;;;;;;;1.57;92.91;103601.94;5009771;28;20154;-80
2022/01/13 10:17:55;;;;;;;77.85;37.28;;;;;;;1.93;92.47;103600.44;4998682;28;20105;-79
2022/01/13 10:20:23;;;;;;;85.20;39.20;;;;;;;1.87;91.88;103605.75;5011354;28;20030;-83
2022/01/13 10:22:50;;;;;;;78.18;36.13;;;;;;;1.81;92.13;103599.81;5018732;28;20057;-82
2022/01/13 10:25:36;;;;;;;79.63;36.25;;;;;;;1.83;92.52;103605.81;5009264;28;20046;-82
2022/01/13 10:28:14;;;;;;;81.32;37.10;;;;;;;1.93;93.03;103599.59;5003115;28;20090;-80
2022/01/13 10:30:44;;;;;;;83.05;37.85;;;;;;;2.20;91.77;103604.25;5007798;28;20101;-83
2022/01/13 10:33:19;;;;;;;75.32;37.42;;;;;;;2.32;91.36;103604.00;5008883;28;20085;-80
2022/01/13 10:35:47;;;;;;;73.10;36.50;;;;;;;2.43;90.63;103600.34;5010414;28;20073;-82
2022/01/13 10:38:16;;;;;;;71.20;35.42;;;;;;;2.23;91.01;103599.03;5018071;28;20046;-81
2022/01/13 10:40:47;;;;;;;75.10;35.95;;;;;;;2.04;91.48;103602.81;5017705;28;20064;-82
2022/01/13 10:43:16;;;;;;;73.72;35.78;;;;;;;2.39;91.06;103604.72;5016964;28;20106;-80
2022/01/13 10:45:50;;;;;;;72.65;34.90;;;;;;;2.22;90.74;103605.06;5003910;28;20053;-81
2022/01/13 10:48:19;;;;;;;75.55;34.00;;;;;;;2.17;91.57;103599.13;5002086;28;20085;-80
2022/01/13 10:50:50;;;;;;;76.97;35.05;;;;;;;2.34;91.24;103593.66;5007698;28;20076;-81
2022/01/13 10:53:19;;;;;;;69.75;33.60;;;;;;;2.09;91.17;103587.25;5008670;28;20061;-80
2022/01/13 10:55:49;;;;;;;71.22;34.53;;;;;;;2.31;90.85;103588.53;5002317;28;20089;-81
2022/01/13 10:58:18;;;;;;;71.80;33.63;;;;;;;2.32;90.41;103578.19;5003340;28;20054;-79
2022/01/13 11:00:50;;;;;;;67.93;34.13;;;;;;;2.50;89.89;103578.66;5007063;28;20107;-79
2022/01/13 11:03:19;;;;;;;68.13;32.45;;;;;;;2.45;89.08;103575.31;5002293;28;20086;-79
2022/01/13 11:05:50;;;;;;;71.65;34.50;;;;;;;2.44;90.08;103555.50;5003141;28;20224;-81
2022/01/13 11:08:23;;;;;;;69.97;35.30;;;;;;;2.56;89.55;103576.78;5000233;28;20052;-82
2022/01/13 11:10:54;;;;;;;66.68;32.80;;;;;;;2.75;89.04;103582.44;5000515;28;20073;-81
2022/01/13 11:13:22;;;;;;;63.90;31.55;;;;;;;2.80;88.94;103566.81;4999087;28;20050;-80
2022/01/13 11:15:55;;;;;;;63.55;31.60;;;;;;;2.81;88.40;103560.75;4999797;28;20066;-81
2022/01/13 11:18:24;;;;;;;59.60;30.92;;;;;;;3.00;87.86;103556.84;4999350;28;20050;-81
2022/01/13 11:20:51;;;;;;;55.53;30.40;;;;;;;3.08;87.71;103549.75;4999697;28;20117;-80
2022/01/13 11:23:19;;;;;;;60.80;31.35;;;;;;;3.18;87.31;103548.66;4998905;28;20074;-81
2022/01/13 11:25:48;;;;;;;58.63;28.88;;;;;;;3.23;86.81;103558.91;4998384;28;20046;-81
2022/01/13 11:28:16;;;;;;;60.83;30.15;;;;;;;3.17;86.71;103541.78;4998497;28;20421;-81
2022/01/13 11:30:43;;;;;;;53.90;27.80;;;;;;;3.15;86.02;103535.78;4999122;28;20043;-80
2022/01/13 11:33:11;;;;;;;60.63;29.27;;;;;;;3.37;85.96;103541.28;4998327;28;20077;-80
2022/01/13 11:35:44;;;;;;;60.28;29.20;;;;;;;3.48;86.21;103539.25;4998514;28;20117;-80
2022/01/13 11:38:11;;;;;;;53.60;28.17;;;;;;;3.58;86.02;103530.38;4999228;28;20050;-81
2022/01/13 11:40:42;;;;;;;49.67;26.42;;;;;;;3.61;85.27;103539.81;4999147;28;20053;-81
2022/01/13 11:43:23;;;;;;;47.47;25.92;;;;;;;3.62;84.30;103525.97;4999167;28;20081;-81
2022/01/13 11:45:53;;;;;;;43.17;23.25;;;;;;;3.74;84.26;103525.66;4998240;28;20057;-82
2022/01/13 11:48:26;;;;;;;43.35;24.65;;;;;;;3.81;83.15;103523.72;4998912;28;20149;-81
2022/01/13 11:51:19;;;;;;;44.35;22.67;;;;;;;3.72;82.25;103485.16;5000186;28;20066;-80
2022/01/13 11:54:04;;;;;;;40.90;22.23;;;;;;;3.76;81.78;103507.47;5000821;28;20082;-81
2022/01/13 11:56:34;;;;;;;42.40;22.95;;;;;;;3.85;82.63;103509.78;5000659;28;20049;-82
2022/01/13 11:59:01;;;;;;;38.80;22.33;;;;;;;3.80;82.41;103490.94;4998943;28;20093;-82
2022/01/13 12:01:30;;;;;;;44.33;24.80;;;;;;;3.89;82.60;103503.63;4998916;28;20138;-82
2022/01/13 12:04:01;;;;;;;39.78;21.75;;;;;;;3.98;82.25;103498.19;4999496;28;20054;-80